Time;durP1;ratioP1;P1;durP2;ratioP2;P2;SDS_P1;SDS_P2;PMS_P1;PMS_P2;Temp;Humidity;BMP_temperature;BMP_pressure;BME280_temperature;BME280_humidity;BME280_pressure;Samples;Min_cycle;Max_cycle;Signal;HPM_P1;HPM_P2
2023/03/29 00:02:16;;;;;;;;;;;;;;;;;;2209415;67;1231;-17
2023/03/29 00:04:46;;;;;;;;;;;;;;;;;;2212020;67;1688;-16
2023/03/29 00:07:16;;;;;;;;;;;;;;;;;;2206871;67;1291;-16
2023/03/29 00:09:47;;;;;;;;;;;;;;;;;;2209718;67;1960;-17
2023/03/29 00:12:17;;;;;;;;;;;;;;;;;;2211767;67;1301;-17
2023/03/29 00:14:47;;;;;;;;;;;;;;;;;;2210489;59;2054;-16
2023/03/29 00:17:18;;;;;;;;;;;;;;;;;;2211210;67;1291;-15
2023/03/29 00:19:48;;;;;;;;;;;;;;;;;;2210598;67;1923;-17
2023/03/29 00:22:18;;;;;;;;;;;;;;;;;;2210501;67;1323;-17
2023/03/29 00:24:52;;;;;;;;;;;;;;;;;;2206547;67;2539;-16
2023/03/29 00:27:23;;;;;;;;;;;;;;;;;;2207503;67;1633;-16
2023/03/29 00:29:53;;;;;;;;;;;;;;;;;;2210183;67;1828;-18
2023/03/29 00:32:24;;;;;;;;;;;;;;;;;;2210669;67;1652;-17
2023/03/29 00:34:55;;;;;;;;;;;;;;;;;;2210115;67;1692;-17
2023/03/29 00:37:29;;;;;;;;;;;;;;;;;;2210679;67;1178;-17
2023/03/29 00:39:59;;;;;;;;;;;;;;;;;;2209826;67;1938;-16
2023/03/29 00:42:29;;;;;;;;;;;;;;;;;;2210487;67;1232;-15
2023/03/29 00:45:03;;;;;;;;;;;;;;;;;;2211234;59;1343;-16
2023/03/29 00:47:41;;;;;;;;;;;;;;;;;;2210871;67;1307;-17
2023/03/29 00:50:15;;;;;;;;;;;;;;;;;;2210870;67;2211;-16
2023/03/29 00:52:52;;;;;;;;;;;;;;;;;;2210720;67;1857;-16
2023/03/29 00:55:24;;;;;;;;;;;;;;;;;;2210151;67;1864;-15
2023/03/29 00:57:56;;;;;;;;;;;;;;;;;;2210031;59;1977;-16
2023/03/29 01:00:33;;;;;;;;;;;;;;;;;;2210890;67;1771;-17
2023/03/29 01:03:07;;;;;;;;;;;;;;;;;;2209345;59;1857;-16
2023/03/29 01:05:40;;;;;;;;;;;;;;;;;;2209825;59;2338;-16
2023/03/29 01:08:17;;;;;;;;;;;;;;;;;;2208879;67;1167;-16
2023/03/29 01:10:50;;;;;;;;;;;;;;;;;;2210247;67;1648;-16
2023/03/29 01:13:26;;;;;;;;;;;;;;;;;;2210629;67;1859;-16
2023/03/29 01:15:57;;;;;;;;;;;;;;;;;;2210308;67;1798;-16
2023/03/29 01:18:30;;;;;;;;;;;;;;;;;;2211229;67;2093;-16
2023/03/29 01:21:03;;;;;;;;;;;;;;;;;;2210271;67;1227;-18
2023/03/29 01:23:42;;;;;;;;;;;;;;;;;;2205903;67;1316;-17
2023/03/29 01:26:27;;;;;;;;;;;;;;;;;;2211605;67;1639;-15
2023/03/29 01:29:05;;;;;;;;;;;;;;;;;;2210140;67;1339;-16
2023/03/29 01:31:37;;;;;;;;;;;;;;;;;;2210608;67;2060;-17
2023/03/29 01:34:18;;;;;;;;;;;;;;;;;;2211935;67;1064;-18
2023/03/29 01:36:53;;;;;;;;;;;;;;;;;;2210069;67;1217;-16
2023/03/29 01:39:23;;;;;;;;;;;;;;;;;;2209293;59;2179;-17
2023/03/29 01:42:32;;;;;;;;;;;;;;;;;;2210342;67;1360;-16
2023/03/29 01:45:02;;;;;;;;;;;;;;;;;;2195525;67;1428;-17
2023/03/29 01:47:51;;;;;;;;;;;;;;;;;;2197790;67;1443;-16
2023/03/29 01:50:31;;;;;;;;;;;;;;;;;;2204292;67;1145;-17
2023/03/29 01:53:12;;;;;;;;;;;;;;;;;;2209436;67;1260;-16
2023/03/29 01:55:45;;;;;;;;;;;;;;;;;;2209322;67;1770;-16
2023/03/29 01:58:17;;;;;;;;;;;;;;;;;;2207019;67;2005;-17
2023/03/29 02:00:49;;;;;;;;;;;;;;;;;;2209663;59;2024;-16
2023/03/29 02:03:23;;;;;;;;;;;;;;;;;;2209056;59;1185;-16
2023/03/29 02:05:54;;;;;;;;;;;;;;;;;;2210228;67;1248;-16
2023/03/29 02:08:25;;;;;;;;;;;;;;;;;;2209758;67;1304;-17
2023/03/29 02:10:55;;;;;;;;;;;;;;;;;;2210478;67;1274;-17
2023/03/29 02:13:26;;;;;;;;;;;;;;;;;;2207130;59;2029;-17
2023/03/29 02:15:58;;;;;;;;;;;;;;;;;;2207216;59;1568;-16
2023/03/29 02:18:29;;;;;;;;;;;;;;;;;;2209688;59;1980;-17
2023/03/29 02:20:59;;;;;;;;;;;;;;;;;;2208941;67;1361;-18
2023/03/29 02:23:33;;;;;;;;;;;;;;;;;;2204914;59;2024;-17
2023/03/29 02:26:05;;;;;;;;;;;;;;;;;;2207783;60;1598;-16
2023/03/29 02:28:36;;;;;;;;;;;;;;;;;;2203620;67;1236;-16
2023/03/29 02:31:10;;;;;;;;;;;;;;;;;;2209155;67;1159;-17
2023/03/29 02:33:47;;;;;;;;;;;;;;;;;;2208507;67;1313;-17
2023/03/29 02:36:21;;;;;;;;;;;;;;;;;;2208295;67;1173;-16
2023/03/29 02:38:52;;;;;;;;;;;;;;;;;;2206166;67;1937;-17
2023/03/29 02:41:24;;;;;;;;;;;;;;;;;;2209891;67;1257;-18
2023/03/29 02:43:56;;;;;;;;;;;;;;;;;;2206234;67;1698;-17
2023/03/29 02:46:26;;;;;;;;;;;;;;;;;;2208928;67;1424;-16
2023/03/29 02:48:57;;;;;;;;;;;;;;;;;;2207012;67;1407;-16
2023/03/29 02:51:31;;;;;;;;;;;;;;;;;;2210660;67;1282;-16
2023/03/29 02:54:16;;;;;;;;;;;;;;;;;;2210224;67;1468;-18
2023/03/29 02:56:48;;;;;;;;;;;;;;;;;;2210675;67;1149;-16
2023/03/29 02:59:19;;;;;;;;;;;;;;;;;;2209009;67;1935;-16
2023/03/29 03:01:49;;;;;;;;;;;;;;;;;;2204613;67;1881;-17
2023/03/29 03:04:19;;;;;;;;;;;;;;;;;;2211087;59;1242;-17
2023/03/29 03:06:50;;;;;;;;;;;;;;;;;;2206651;59;1333;-16
2023/03/29 03:09:20;;;;;;;;;;;;;;;;;;2207616;67;1219;-15
2023/03/29 03:11:50;;;;;;;;;;;;;;;;;;2207985;67;1271;-17
2023/03/29 03:14:21;;;;;;;;;;;;;;;;;;2209690;67;1083;-16
2023/03/29 03:16:51;;;;;;;;;;;;;;;;;;2210196;67;1355;-17
2023/03/29 03:19:22;;;;;;;;;;;;;;;;;;2210708;67;1991;-18
2023/03/29 03:21:52;;;;;;;;;;;;;;;;;;2210398;67;1270;-16
2023/03/29 03:24:22;;;;;;;;;;;;;;;;;;2210083;67;1322;-16
2023/03/29 03:26:53;;;;;;;;;;;;;;;;;;2210356;67;1179;-17
2023/03/29 03:29:27;;;;;;;;;;;;;;;;;;2203544;67;1516;-16
2023/03/29 03:31:57;;;;;;;;;;;;;;;;;;2210017;67;1281;-17
2023/03/29 03:34:30;;;;;;;;;;;;;;;;;;2210197;67;1222;-17
2023/03/29 03:37:01;;;;;;;;;;;;;;;;;;2210202;67;1377;-17
2023/03/29 03:39:31;;;;;;;;;;;;;;;;;;2210612;67;1933;-18
2023/03/29 03:42:01;;;;;;;;;;;;;;;;;;2210547;67;1374;-17
2023/03/29 03:44:31;;;;;;;;;;;;;;;;;;2211421;67;1370;-16
2023/03/29 03:47:03;;;;;;;;;;;;;;;;;;2208252;67;1342;-17
2023/03/29 03:49:33;;;;;;;;;;;;;;;;;;2209477;67;1295;-17
2023/03/29 03:52:03;;;;;;;;;;;;;;;;;;2210723;67;1354;-16
2023/03/29 03:54:34;;;;;;;;;;;;;;;;;;2210546;59;1205;-15
2023/03/29 03:57:04;;;;;;;;;;;;;;;;;;2209651;59;2181;-16
2023/03/29 03:59:34;;;;;;;;;;;;;;;;;;2206726;59;1987;-17
2023/03/29 04:02:05;;;;;;;;;;;;;;;;;;2208202;59;1382;-17
2023/03/29 04:04:35;;;;;;;;;;;;;;;;;;2209160;67;1262;-19
2023/03/29 04:07:06;;;;;;;;;;;;;;;;;;2209317;67;1328;-16
2023/03/29 04:09:36;;;;;;;;;;;;;;;;;;2210678;67;1253;-17
2023/03/29 04:12:06;;;;;;;;;;;;;;;;;;2206825;67;1417;-17
2023/03/29 04:14:37;;;;;;;;;;;;;;;;;;2211158;67;1373;-18
2023/03/29 04:17:07;;;;;;;;;;;;;;;;;;2210365;67;1221;-18
2023/03/29 04:19:37;;;;;;;;;;;;;;;;;;2209875;67;1979;-17
2023/03/29 04:22:08;;;;;;;;;;;;;;;;;;2209748;67;1441;-17
2023/03/29 04:24:38;;;;;;;;;;;;;;;;;;2206836;67;1109;-17
2023/03/29 04:27:08;;;;;;;;;;;;;;;;;;2209299;67;1840;-17
2023/03/29 04:29:39;;;;;;;;;;;;;;;;;;2207886;67;1359;-16
2023/03/29 04:32:10;;;;;;;;;;;;;;;;;;2208103;67;1238;-18
2023/03/29 04:34:40;;;;;;;;;;;;;;;;;;2210045;67;1652;-17
2023/03/29 04:37:11;;;;;;;;;;;;;;;;;;2205706;59;1256;-17
2023/03/29 04:39:41;;;;;;;;;;;;;;;;;;2207178;67;1970;-16
2023/03/29 04:42:11;;;;;;;;;;;;;;;;;;2206785;67;1264;-18
2023/03/29 04:44:42;;;;;;;;;;;;;;;;;;2211001;67;1498;-16
2023/03/29 04:47:13;;;;;;;;;;;;;;;;;;2206492;67;1416;-16
2023/03/29 04:49:43;;;;;;;;;;;;;;;;;;2205452;59;1462;-16
2023/03/29 04:52:16;;;;;;;;;;;;;;;;;;2211048;67;1704;-17
2023/03/29 04:54:46;;;;;;;;;;;;;;;;;;2209732;67;1279;-16
2023/03/29 04:57:16;;;;;;;;;;;;;;;;;;2210859;67;1092;-16
2023/03/29 04:59:46;;;;;;;;;;;;;;;;;;2208707;67;1926;-17
2023/03/29 05:02:17;;;;;;;;;;;;;;;;;;2215502;53;1749;-25
2023/03/29 05:04:47;;;;;;;;;;;;;;;;;;2222295;66;1728;-25
2023/03/29 05:07:20;;;;;;;;;;;;;;;;;;2221997;66;1919;-25
2023/03/29 05:09:50;;;;;;;;;;;;;;;;;;2221690;66;1119;-25
2023/03/29 05:12:21;;;;;;;;;;;;;;;;;;2221654;66;1740;-25
2023/03/29 05:14:51;;;;;;;;;;;;;;;;;;2220314;66;1223;-25
2023/03/29 05:17:21;;;;;;;;;;;;;;;;;;2216443;66;1437;-25
2023/03/29 05:19:53;;;;;;;;;;;;;;;;;;2219865;58;1931;-25
2023/03/29 05:22:23;;;;;;;;;;;;;;;;;;2220664;66;1260;-25
2023/03/29 05:24:53;;;;;;;;;;;;;;;;;;2220315;66;1724;-25
2023/03/29 05:27:24;;;;;;;;;;;;;;;;;;2219513;66;1357;-25
2023/03/29 05:29:54;;;;;;;;;;;;;;;;;;2220682;66;1628;-25
2023/03/29 05:32:25;;;;;;;;;;;;;;;;;;2220335;59;1585;-25
2023/03/29 05:34:55;;;;;;;;;;;;;;;;;;2217262;66;1787;-25
2023/03/29 05:37:25;;;;;;;;;;;;;;;;;;2215442;59;1262;-25
2023/03/29 05:39:56;;;;;;;;;;;;;;;;;;2219071;58;2004;-25
2023/03/29 05:42:26;;;;;;;;;;;;;;;;;;2223499;66;1844;-25
2023/03/29 05:44:56;;;;;;;;;;;;;;;;;;2218064;66;1390;-25
2023/03/29 05:47:27;;;;;;;;;;;;;;;;;;2220032;59;1254;-25
2023/03/29 05:49:57;;;;;;;;;;;;;;;;;;2219802;66;1221;-25
2023/03/29 05:52:27;;;;;;;;;;;;;;;;;;2218193;66;1241;-25
2023/03/29 05:54:58;;;;;;;;;;;;;;;;;;2220878;66;1195;-25
2023/03/29 05:57:28;;;;;;;;;;;;;;;;;;2217201;59;1675;-25
2023/03/29 05:59:58;;;;;;;;;;;;;;;;;;2220247;58;1927;-25
2023/03/29 06:02:29;;;;;;;;;;;;;;;;;;2220533;58;1368;-25
2023/03/29 06:04:59;;;;;;;;;;;;;;;;;;2220237;59;1339;-25
2023/03/29 06:07:30;;;;;;;;;;;;;;;;;;2218324;66;1439;-25
2023/03/29 06:10:01;;;;;;;;;;;;;;;;;;2220068;66;1100;-25
2023/03/29 06:12:32;;;;;;;;;;;;;;;;;;2219973;66;1224;-25
2023/03/29 06:15:04;;;;;;;;;;;;;;;;;;2216999;66;1733;-25
2023/03/29 06:17:34;;;;;;;;;;;;;;;;;;2220057;66;1154;-25
2023/03/29 06:20:09;;;;;;;;;;;;;;;;;;2216189;66;1936;-25
2023/03/29 06:22:40;;;;;;;;;;;;;;;;;;2217708;66;1852;-23
2023/03/29 06:25:11;;;;;;;;;;;;;;;;;;2216175;66;1168;-23
2023/03/29 06:27:41;;;;;;;;;;;;;;;;;;2219937;66;1095;-23
2023/03/29 06:30:14;;;;;;;;;;;;;;;;;;2219069;66;1872;-23
2023/03/29 06:32:45;;;;;;;;;;;;;;;;;;2219037;66;1626;-23
2023/03/29 06:35:15;;;;;;;;;;;;;;;;;;2219831;66;1169;-23
2023/03/29 06:37:48;;;;;;;;;;;;;;;;;;2219522;66;1201;-25
2023/03/29 06:40:20;;;;;;;;;;;;;;;;;;2218427;66;1994;-23
2023/03/29 06:42:56;;;;;;;;;;;;;;;;;;2219179;66;1529;-23
2023/03/29 06:45:27;;;;;;;;;;;;;;;;;;2219691;66;1140;-23
2023/03/29 06:47:58;;;;;;;;;;;;;;;;;;2219325;66;1341;-23
2023/03/29 06:50:28;;;;;;;;;;;;;;;;;;2218948;66;1201;-25
2023/03/29 06:52:59;;;;;;;;;;;;;;;;;;2215300;66;1340;-23
2023/03/29 06:55:30;;;;;;;;;;;;;;;;;;2219179;59;1117;-23
2023/03/29 06:58:00;;;;;;;;;;;;;;;;;;2216117;58;1938;-23
2023/03/29 07:00:34;;;;;;;;;;;;;;;;;;2215763;66;1403;-23
2023/03/29 07:03:05;;;;;;;;;;;;;;;;;;2214931;59;1734;-23
2023/03/29 07:05:39;;;;;;;;;;;;;;;;;;2218531;66;1333;-23
2023/03/29 07:08:12;;;;;;;;;;;;;;;;;;2219097;66;1363;-24
2023/03/29 07:10:46;;;;;;;;;;;;;;;;;;2216658;66;1310;-23
2023/03/29 07:13:16;;;;;;;;;;;;;;;;;;2219442;66;1492;-23
2023/03/29 07:15:46;;;;;;;;;;;;;;;;;;2219690;66;1355;-23
2023/03/29 07:18:17;;;;;;;;;;;;;;;;;;2219774;59;2006;-24
2023/03/29 07:20:48;;;;;;;;;;;;;;;;;;2216206;66;1380;-23
2023/03/29 07:23:18;;;;;;;;;;;;;;;;;;2219532;66;1232;-23
2023/03/29 07:25:49;;;;;;;;;;;;;;;;;;2219554;66;1152;-23
2023/03/29 07:28:19;;;;;;;;;;;;;;;;;;2218543;58;1718;-23
2023/03/29 07:30:50;;;;;;;;;;;;;;;;;;2219630;66;1383;-23
2023/03/29 07:33:20;;;;;;;;;;;;;;;;;;2219283;66;1622;-23
2023/03/29 07:35:50;;;;;;;;;;;;;;;;;;2219049;66;1778;-23
2023/03/29 07:38:20;;;;;;;;;;;;;;;;;;2219603;59;1943;-23
2023/03/29 07:40:52;;;;;;;;;;;;;;;;;;2216742;59;1615;-23
2023/03/29 07:43:23;;;;;;;;;;;;;;;;;;2220069;66;1218;-24
2023/03/29 07:45:54;;;;;;;;;;;;;;;;;;2216991;66;1140;-23
2023/03/29 07:48:24;;;;;;;;;;;;;;;;;;2219752;66;1649;-24
2023/03/29 07:50:54;;;;;;;;;;;;;;;;;;2220251;66;1174;-23
2023/03/29 07:53:25;;;;;;;;;;;;;;;;;;2219424;59;1174;-23
2023/03/29 07:55:56;;;;;;;;;;;;;;;;;;2220149;66;1333;-23
2023/03/29 07:58:26;;;;;;;;;;;;;;;;;;2220946;66;1931;-23
2023/03/29 08:00:58;;;;;;;;;;;;;;;;;;2221076;66;1420;-23
2023/03/29 08:03:28;;;;;;;;;;;;;;;;;;2220467;66;1530;-25
2023/03/29 08:06:02;;;;;;;;;;;;;;;;;;2220683;66;1128;-23
2023/03/29 08:08:32;;;;;;;;;;;;;;;;;;2220675;66;1383;-23
2023/03/29 08:11:03;;;;;;;;;;;;;;;;;;2220390;66;1502;-23
2023/03/29 08:13:33;;;;;;;;;;;;;;;;;;2218706;66;1766;-23
2023/03/29 08:16:04;;;;;;;;;;;;;;;;;;2218706;66;1293;-23
2023/03/29 08:18:34;;;;;;;;;;;;;;;;;;2214756;66;1979;-23
2023/03/29 08:21:06;;;;;;;;;;;;;;;;;;2218991;59;1815;-23
2023/03/29 08:23:36;;;;;;;;;;;;;;;;;;2219100;66;1252;-23
2023/03/29 08:26:07;;;;;;;;;;;;;;;;;;2219162;66;1484;-23
2023/03/29 08:28:37;;;;;;;;;;;;;;;;;;2219467;66;1883;-23
2023/03/29 08:31:08;;;;;;;;;;;;;;;;;;2216047;58;1698;-23
2023/03/29 08:33:39;;;;;;;;;;;;;;;;;;2219169;66;1351;-23
2023/03/29 08:36:10;;;;;;;;;;;;;;;;;;2216160;66;1512;-23
2023/03/29 08:38:40;;;;;;;;;;;;;;;;;;2216166;66;1996;-23
2023/03/29 08:41:24;;;;;;;;;;;;;;;;;;2217651;66;1859;-23
2023/03/29 08:44:00;;;;;;;;;;;;;;;;;;2219628;66;1837;-23
2023/03/29 08:46:35;;;;;;;;;;;;;;;;;;2220045;66;2042;-23
2023/03/29 08:49:07;;;;;;;;;;;;;;;;;;2209476;66;1151;-23
2023/03/29 08:51:47;;;;;;;;;;;;;;;;;;2219367;66;1223;-23
2023/03/29 08:54:23;;;;;;;;;;;;;;;;;;2220039;66;1639;-23
2023/03/29 08:56:58;;;;;;;;;;;;;;;;;;2217178;66;1725;-23
2023/03/29 08:59:30;;;;;;;;;;;;;;;;;;2220425;66;1940;-23
2023/03/29 09:02:03;;;;;;;;;;;;;;;;;;2219644;58;1816;-23
2023/03/29 09:04:35;;;;;;;;;;;;;;;;;;2218566;66;1825;-23
2023/03/29 09:07:09;;;;;;;;;;;;;;;;;;2219409;66;1158;-23
2023/03/29 09:09:41;;;;;;;;;;;;;;;;;;2218210;59;1137;-23
2023/03/29 09:12:29;;;;;;;;;;;;;;;;;;2219421;66;1304;-23
2023/03/29 09:15:00;;;;;;;;;;;;;;;;;;2219843;66;1363;-23
2023/03/29 09:17:42;;;;;;;;;;;;;;;;;;2219642;58;1173;-23
2023/03/29 09:20:31;;;;;;;;;;;;;;;;;;2219354;66;1992;-23
2023/03/29 09:23:04;;;;;;;;;;;;;;;;;;2215902;58;1932;-24
2023/03/29 09:25:53;;;;;;;;;;;;;;;;;;2220075;66;1527;-23
2023/03/29 09:28:33;;;;;;;;;;;;;;;;;;2216589;66;1716;-24
2023/03/29 09:31:04;;;;;;;;;;;;;;;;;;2220081;66;1624;-23
2023/03/29 09:33:44;;;;;;;;;;;;;;;;;;2219005;66;1533;-23
2023/03/29 09:36:23;;;;;;;;;;;;;;;;;;2219793;66;2062;-24
2023/03/29 09:38:54;;;;;;;;;;;;;;;;;;2220579;66;1947;-23
2023/03/29 09:41:28;;;;;;;;;;;;;;;;;;2217036;66;1116;-24
2023/03/29 09:44:01;;;;;;;;;;;;;;;;;;2219155;59;1754;-24
2023/03/29 09:46:43;;;;;;;;;;;;;;;;;;2216936;66;1198;-24
2023/03/29 09:49:17;;;;;;;;;;;;;;;;;;2219680;66;1205;-23
2023/03/29 09:51:48;;;;;;;;;;;;;;;;;;2219515;66;1296;-24
2023/03/29 09:54:18;;;;;;;;;;;;;;;;;;2216011;59;1301;-24
2023/03/29 09:56:49;;;;;;;;;;;;;;;;;;2220401;66;1337;-24
2023/03/29 09:59:19;;;;;;;;;;;;;;;;;;2216855;66;1936;-24
2023/03/29 10:01:50;;;;;;;;;;;;;;;;;;2219737;58;1234;-24
2023/03/29 10:04:21;;;;;;;;;;;;;;;;;;2220065;66;1113;-24
2023/03/29 10:06:51;;;;;;;;;;;;;;;;;;2219912;66;1671;-24
2023/03/29 10:09:23;;;;;;;;;;;;;;;;;;2220587;66;1316;-24
2023/03/29 10:12:00;;;;;;;;;;;;;;;;;;2220455;66;1334;-23
2023/03/29 10:14:35;;;;;;;;;;;;;;;;;;2212642;66;1828;-24
2023/03/29 10:17:14;;;;;;;;;;;;;;;;;;2219796;66;1933;-24
2023/03/29 10:19:51;;;;;;;;;;;;;;;;;;2219576;66;1946;-24
2023/03/29 10:22:23;;;;;;;;;;;;;;;;;;2220094;59;1231;-24
2023/03/29 10:24:56;;;;;;;;;;;;;;;;;;2220253;66;1988;-24
2023/03/29 10:27:27;;;;;;;;;;;;;;;;;;2219906;58;1914;-24
2023/03/29 10:29:58;;;;;;;;;;;;;;;;;;2219995;66;1813;-24
2023/03/29 10:32:33;;;;;;;;;;;;;;;;;;2220698;66;1227;-24
2023/03/29 10:35:12;;;;;;;;;;;;;;;;;;2220702;66;1313;-24
2023/03/29 10:37:43;;;;;;;;;;;;;;;;;;2219686;66;2411;-24
2023/03/29 10:40:20;;;;;;;;;;;;;;;;;;2220283;66;2102;-24
2023/03/29 10:42:52;;;;;;;;;;;;;;;;;;2221083;58;1248;-24
2023/03/29 10:45:24;;;;;;;;;;;;;;;;;;2219869;66;1665;-24
2023/03/29 10:47:55;;;;;;;;;;;;;;;;;;2219823;66;1243;-24
2023/03/29 10:50:32;;;;;;;;;;;;;;;;;;2219931;66;1123;-24
2023/03/29 10:53:06;;;;;;;;;;;;;;;;;;2219609;66;1782;-24
2023/03/29 10:55:42;;;;;;;;;;;;;;;;;;2219993;66;1466;-24
2023/03/29 10:58:22;;;;;;;;;;;;;;;;;;2214962;58;2252;-24
2023/03/29 11:00:56;;;;;;;;;;;;;;;;;;2216595;66;1499;-24
2023/03/29 11:03:50;;;;;;;;;;;;;;;;;;2216468;59;1202;-23
2023/03/29 11:06:29;;;;;;;;;;;;;;;;;;2219741;66;1093;-23
2023/03/29 11:09:03;;;;;;;;;;;;;;;;;;2219215;66;1671;-23
2023/03/29 11:11:36;;;;;;;;;;;;;;;;;;2219423;59;1196;-23
2023/03/29 11:14:33;;;;;;;;;;;;;;;;;;2215835;66;1466;-23
2023/03/29 11:17:15;;;;;;;;;;;;;;;;;;2212526;66;1530;-23
2023/03/29 11:19:58;;;;;;;;;;;;;;;;;;2219304;66;1935;-23
2023/03/29 11:22:47;;;;;;;;;;;;;;;;;;2215552;66;1238;-23
2023/03/29 11:25:29;;;;;;;;;;;;;;;;;;2215858;66;1630;-23
2023/03/29 11:28:05;;;;;;;;;;;;;;;;;;2219303;66;1393;-23
2023/03/29 11:30:41;;;;;;;;;;;;;;;;;;2219226;66;1115;-23
2023/03/29 11:33:28;;;;;;;;;;;;;;;;;;2219734;66;1815;-23
2023/03/29 11:36:16;;;;;;;;;;;;;;;;;;2213564;59;1481;-23
2023/03/29 11:38:49;;;;;;;;;;;;;;;;;;2219878;66;1944;-23
2023/03/29 11:41:29;;;;;;;;;;;;;;;;;;2218572;66;1092;-23
2023/03/29 11:44:13;;;;;;;;;;;;;;;;;;2220813;66;1294;-23
2023/03/29 11:46:46;;;;;;;;;;;;;;;;;;2218084;59;1168;-23
2023/03/29 11:49:22;;;;;;;;;;;;;;;;;;2219518;66;1219;-23
2023/03/29 11:52:05;;;;;;;;;;;;;;;;;;2219979;66;1688;-24
2023/03/29 11:54:35;;;;;;;;;;;;;;;;;;2215639;66;1396;-24
2023/03/29 11:57:11;;;;;;;;;;;;;;;;;;2216154;66;1357;-23
2023/03/29 11:59:48;;;;;;;;;;;;;;;;;;2216503;66;1945;-23
2023/03/29 12:02:38;;;;;;;;;;;;;;;;;;2218793;58;1257;-23
2023/03/29 12:05:18;;;;;;;;;;;;;;;;;;2219652;66;1306;-23
2023/03/29 12:07:54;;;;;;;;;;;;;;;;;;2219808;66;1245;-23
2023/03/29 12:10:40;;;;;;;;;;;;;;;;;;2219931;66;1390;-23
2023/03/29 12:13:13;;;;;;;;;;;;;;;;;;2217701;66;1761;-23
2023/03/29 12:16:03;;;;;;;;;;;;;;;;;;2219605;66;1235;-23
2023/03/29 12:18:44;;;;;;;;;;;;;;;;;;2219420;66;1929;-23
2023/03/29 12:21:17;;;;;;;;;;;;;;;;;;2219957;66;1192;-23
2023/03/29 12:23:48;;;;;;;;;;;;;;;;;;2220015;66;1238;-23
2023/03/29 12:26:19;;;;;;;;;;;;;;;;;;2214872;66;1092;-23
2023/03/29 12:28:52;;;;;;;;;;;;;;;;;;2219474;66;1160;-23
2023/03/29 12:31:31;;;;;;;;;;;;;;;;;;2220172;66;1138;-23
2023/03/29 12:34:20;;;;;;;;;;;;;;;;;;2220130;66;1730;-23
2023/03/29 12:36:53;;;;;;;;;;;;;;;;;;2215972;66;1215;-24
2023/03/29 12:39:26;;;;;;;;;;;;;;;;;;2219044;59;1919;-23
2023/03/29 12:42:13;;;;;;;;;;;;;;;;;;2216476;66;1345;-23
2023/03/29 12:45:04;;;;;;;;;;;;;;;;;;2219970;66;1322;-23
2023/03/29 12:47:41;;;;;;;;;;;;;;;;;;2215383;66;2158;-23
2023/03/29 12:50:27;;;;;;;;;;;;;;;;;;2219789;66;1193;-23
2023/03/29 12:53:01;;;;;;;;;;;;;;;;;;2219238;66;1827;-23
2023/03/29 12:55:33;;;;;;;;;;;;;;;;;;2217879;66;1304;-24
2023/03/29 12:58:05;;;;;;;;;;;;;;;;;;2220546;66;1770;-23
2023/03/29 13:00:35;;;;;;;;;;;;;;;;;;2217022;66;1947;-24
2023/03/29 13:03:19;;;;;;;;;;;;;;;;;;2220044;58;1166;-23
2023/03/29 13:05:57;;;;;;;;;;;;;;;;;;2220054;66;1698;-24
2023/03/29 13:08:36;;;;;;;;;;;;;;;;;;2219697;66;1250;-23
2023/03/29 13:11:12;;;;;;;;;;;;;;;;;;2215602;66;1670;-23
2023/03/29 13:13:42;;;;;;;;;;;;;;;;;;2218303;66;1225;-23
2023/03/29 13:16:17;;;;;;;;;;;;;;;;;;2216294;66;1212;-23
2023/03/29 13:18:55;;;;;;;;;;;;;;;;;;2220325;66;1935;-24
2023/03/29 13:21:44;;;;;;;;;;;;;;;;;;2215314;66;1815;-23
2023/03/29 13:24:23;;;;;;;;;;;;;;;;;;2219761;66;1694;-24
2023/03/29 13:27:12;;;;;;;;;;;;;;;;;;2219622;66;1141;-23
2023/03/29 13:30:08;;;;;;;;;;;;;;;;;;2219123;66;1186;-23
2023/03/29 13:32:57;;;;;;;;;;;;;;;;;;2220305;66;1370;-23
2023/03/29 13:35:46;;;;;;;;;;;;;;;;;;2216437;66;1110;-24
2023/03/29 13:38:18;;;;;;;;;;;;;;;;;;2220323;66;1938;-24
2023/03/29 13:40:51;;;;;;;;;;;;;;;;;;2219578;66;1131;-24
2023/03/29 13:43:29;;;;;;;;;;;;;;;;;;2220243;66;1422;-24
2023/03/29 13:45:59;;;;;;;;;;;;;;;;;;2215435;66;1426;-22
2023/03/29 13:48:36;;;;;;;;;;;;;;;;;;2216479;66;1951;-22
2023/03/29 13:51:12;;;;;;;;;;;;;;;;;;2215064;66;1890;-22
2023/03/29 13:53:42;;;;;;;;;;;;;;;;;;2219841;66;1709;-22
2023/03/29 13:56:16;;;;;;;;;;;;;;;;;;2219471;66;2111;-22
2023/03/29 13:58:48;;;;;;;;;;;;;;;;;;2216463;66;1924;-22
2023/03/29 14:01:31;;;;;;;;;;;;;;;;;;2215487;66;1817;-22
2023/03/29 14:04:03;;;;;;;;;;;;;;;;;;2219739;58;1319;-22
2023/03/29 14:06:36;;;;;;;;;;;;;;;;;;2218742;66;1315;-22
2023/03/29 14:09:07;;;;;;;;;;;;;;;;;;2219351;66;1230;-22
2023/03/29 14:11:43;;;;;;;;;;;;;;;;;;2219022;66;1221;-22
2023/03/29 14:14:13;;;;;;;;;;;;;;;;;;2219602;66;1185;-22
2023/03/29 14:16:43;;;;;;;;;;;;;;;;;;2219685;66;1296;-23
2023/03/29 14:19:23;;;;;;;;;;;;;;;;;;2218851;66;1939;-22
2023/03/29 14:21:54;;;;;;;;;;;;;;;;;;2220424;66;1314;-22
2023/03/29 14:24:26;;;;;;;;;;;;;;;;;;2220075;66;1256;-22
2023/03/29 14:27:01;;;;;;;;;;;;;;;;;;2219776;66;1028;-23
2023/03/29 14:29:31;;;;;;;;;;;;;;;;;;2216444;66;2060;-22
2023/03/29 14:32:09;;;;;;;;;;;;;;;;;;2220038;66;1370;-22
2023/03/29 14:34:39;;;;;;;;;;;;;;;;;;2215980;66;1143;-23
2023/03/29 14:37:15;;;;;;;;;;;;;;;;;;2219373;66;1261;-22
2023/03/29 14:39:45;;;;;;;;;;;;;;;;;;2219813;66;1933;-23
2023/03/29 14:42:19;;;;;;;;;;;;;;;;;;2216031;66;1400;-22
2023/03/29 14:44:49;;;;;;;;;;;;;;;;;;2220607;66;2035;-23
2023/03/29 14:47:24;;;;;;;;;;;;;;;;;;2217094;66;1068;-24
2023/03/29 14:49:59;;;;;;;;;;;;;;;;;;2220157;66;1093;-22
2023/03/29 14:52:30;;;;;;;;;;;;;;;;;;2219368;66;1305;-22
2023/03/29 14:55:02;;;;;;;;;;;;;;;;;;2220531;66;1389;-23
2023/03/29 14:57:35;;;;;;;;;;;;;;;;;;2219551;58;1100;-22
2023/03/29 15:00:17;;;;;;;;;;;;;;;;;;2219449;58;2012;-23
2023/03/29 15:02:49;;;;;;;;;;;;;;;;;;2219075;58;1862;-22
2023/03/29 15:05:34;;;;;;;;;;;;;;;;;;2215943;66;1757;-23
2023/03/29 15:08:10;;;;;;;;;;;;;;;;;;2220362;66;1596;-23
2023/03/29 15:10:41;;;;;;;;;;;;;;;;;;2219423;66;1271;-22
2023/03/29 15:13:16;;;;;;;;;;;;;;;;;;2219763;66;1319;-22
2023/03/29 15:15:49;;;;;;;;;;;;;;;;;;2219268;66;2073;-22
2023/03/29 15:18:22;;;;;;;;;;;;;;;;;;2219026;66;1944;-22
2023/03/29 15:20:55;;;;;;;;;;;;;;;;;;2219735;66;1190;-22
2023/03/29 15:23:33;;;;;;;;;;;;;;;;;;2220194;66;1231;-22
2023/03/29 15:26:22;;;;;;;;;;;;;;;;;;2219437;66;1277;-22
2023/03/29 15:28:59;;;;;;;;;;;;;;;;;;2219598;66;1730;-22
2023/03/29 15:31:34;;;;;;;;;;;;;;;;;;2219716;66;1133;-22
2023/03/29 15:34:11;;;;;;;;;;;;;;;;;;2219352;66;1288;-22
2023/03/29 15:36:43;;;;;;;;;;;;;;;;;;2219931;66;1330;-22
2023/03/29 15:39:15;;;;;;;;;;;;;;;;;;2219246;66;1988;-22
2023/03/29 15:41:47;;;;;;;;;;;;;;;;;;2219548;66;1275;-22
2023/03/29 15:44:35;;;;;;;;;;;;;;;;;;2220346;66;1696;-22
2023/03/29 15:47:09;;;;;;;;;;;;;;;;;;2220701;66;1199;-24
2023/03/29 15:49:39;;;;;;;;;;;;;;;;;;2219952;59;1321;-22
2023/03/29 15:52:09;;;;;;;;;;;;;;;;;;2221439;66;1231;-22
2023/03/29 15:54:40;;;;;;;;;;;;;;;;;;2220343;66;1586;-22
2023/03/29 15:57:12;;;;;;;;;;;;;;;;;;2220206;66;1116;-22
2023/03/29 15:59:43;;;;;;;;;;;;;;;;;;2219906;66;1937;-24
2023/03/29 16:02:15;;;;;;;;;;;;;;;;;;2219765;66;1691;-24
2023/03/29 16:04:45;;;;;;;;;;;;;;;;;;2216648;66;2196;-24
2023/03/29 16:07:17;;;;;;;;;;;;;;;;;;2219765;66;2118;-24
2023/03/29 16:09:47;;;;;;;;;;;;;;;;;;2220015;66;1959;-22
2023/03/29 16:12:17;;;;;;;;;;;;;;;;;;2219763;59;1328;-22
2023/03/29 16:14:47;;;;;;;;;;;;;;;;;;2220471;66;1936;-24
2023/03/29 16:17:18;;;;;;;;;;;;;;;;;;2219528;66;1275;-22
2023/03/29 16:19:48;;;;;;;;;;;;;;;;;;2219388;66;2010;-22
2023/03/29 16:22:18;;;;;;;;;;;;;;;;;;2219410;66;1673;-22
2023/03/29 16:24:48;;;;;;;;;;;;;;;;;;2219417;66;1348;-22
2023/03/29 16:27:18;;;;;;;;;;;;;;;;;;2214287;66;1728;-22
2023/03/29 16:29:49;;;;;;;;;;;;;;;;;;2218173;66;1256;-22
2023/03/29 16:32:19;;;;;;;;;;;;;;;;;;2219151;66;1298;-22
2023/03/29 16:34:49;;;;;;;;;;;;;;;;;;2219709;66;1333;-22
2023/03/29 16:37:20;;;;;;;;;;;;;;;;;;2214974;66;1388;-22
2023/03/29 16:39:50;;;;;;;;;;;;;;;;;;2215325;66;1997;-22
2023/03/29 16:42:20;;;;;;;;;;;;;;;;;;2219766;66;1227;-22
2023/03/29 16:44:50;;;;;;;;;;;;;;;;;;2220039;59;1114;-22
2023/03/29 16:47:21;;;;;;;;;;;;;;;;;;2219963;66;1637;-22
2023/03/29 16:49:51;;;;;;;;;;;;;;;;;;2216800;59;1287;-22
2023/03/29 16:52:22;;;;;;;;;;;;;;;;;;2220056;66;1229;-22
2023/03/29 16:54:52;;;;;;;;;;;;;;;;;;2220443;59;1263;-22
2023/03/29 16:57:24;;;;;;;;;;;;;;;;;;2216118;58;1973;-23
2023/03/29 16:59:54;;;;;;;;;;;;;;;;;;2220261;58;1959;-22
2023/03/29 17:02:25;;;;;;;;;;;;;;;;;;2220746;58;1734;-22
2023/03/29 17:04:57;;;;;;;;;;;;;;;;;;2216786;59;1730;-87
2023/03/29 17:07:28;;;;;;;;;;;;;;;;;;2211607;67;1440;-86
2023/03/29 17:09:59;;;;;;;;;;;;;;;;;;2209079;59;1208;-86
2023/03/29 17:12:30;;;;;;;;;;;;;;;;;;2208280;67;1183;-86
2023/03/29 17:15:00;;;;;;;;;;;;;;;;;;2209398;67;1111;-87
2023/03/29 17:17:30;;;;;;;;;;;;;;;;;;2217924;67;1190;-86
2023/03/29 17:20:01;;;;;;;;;;;;;;;;;;2220896;59;1959;-86
2023/03/29 17:22:31;;;;;;;;;;;;;;;;;;2222759;67;1072;-86
2023/03/29 17:25:02;;;;;;;;;;;;;;;;;;2217265;67;1159;-87
2023/03/29 17:27:33;;;;;;;;;;;;;;;;;;2211148;67;1168;-86
2023/03/29 17:30:04;;;;;;;;;;;;;;;;;;2212379;59;1151;-87
2023/03/29 17:32:35;;;;;;;;;;;;;;;;;;2205361;59;1250;-86
2023/03/29 17:35:09;;;;;;;;;;;;;;;;;;2209432;67;1194;-86
2023/03/29 17:37:40;;;;;;;;;;;;;;;;;;2207601;59;1239;-86
2023/03/29 17:40:12;;;;;;;;;;;;;;;;;;2212348;67;1915;-86
2023/03/29 17:42:46;;;;;;;;;;;;;;;;;;2209764;67;1047;-87
2023/03/29 17:45:17;;;;;;;;;;;;;;;;;;2209865;67;1097;-87
2023/03/29 17:47:47;;;;;;;;;;;;;;;;;;2208995;67;1244;-86